createdAt,value
2022-10-04T00:00:09.658Z,3.40
2022-10-04T00:02:38.818Z,3.60
2022-10-04T00:05:10.244Z,3.20
2022-10-04T00:07:42.858Z,3.50
2022-10-04T00:10:20.936Z,3.07
2022-10-04T00:12:53.555Z,3.27
2022-10-04T00:15:24.941Z,3.07
2022-10-04T00:18:22.291Z,3.47
2022-10-04T00:20:59.945Z,3.50
2022-10-04T00:23:41.284Z,3.37
2022-10-04T00:26:17.389Z,2.93
2022-10-04T00:28:49.633Z,3.10
2022-10-04T00:31:24.009Z,2.80
2022-10-04T00:33:55.285Z,2.80
2022-10-04T00:36:41.742Z,2.87
2022-10-04T00:39:38.877Z,2.87
2022-10-04T00:42:23.807Z,2.30
2022-10-04T00:44:58.038Z,2.00
2022-10-04T00:47:33.381Z,1.90
2022-10-04T00:50:13.021Z,2.50
2022-10-04T00:52:46.448Z,2.50
2022-10-04T00:55:26.254Z,2.20
2022-10-04T00:58:00.561Z,2.50
2022-10-04T01:00:33.252Z,2.23
2022-10-04T01:03:05.283Z,2.30
2022-10-04T01:05:37.743Z,2.00
2022-10-04T01:08:11.944Z,2.63
2022-10-04T01:10:46.005Z,2.00
2022-10-04T01:13:18.382Z,2.00
2022-10-04T01:15:55.353Z,2.23
2022-10-04T01:18:32.727Z,2.03
2022-10-04T01:21:05.896Z,2.20
2022-10-04T01:23:44.008Z,2.00
2022-10-04T01:26:41.567Z,2.10
2022-10-04T01:29:16.727Z,2.00
2022-10-04T01:31:47.012Z,2.00
2022-10-04T01:34:17.395Z,2.20
2022-10-04T01:36:48.782Z,2.20
2022-10-04T01:39:20.903Z,2.47
2022-10-04T01:41:54.193Z,1.80
2022-10-04T01:44:29.614Z,2.13
2022-10-04T01:47:01.922Z,2.10
2022-10-04T01:49:33.561Z,2.00
2022-10-04T01:52:06.856Z,1.80
2022-10-04T01:54:40.198Z,2.00
2022-10-04T01:57:15.426Z,2.10
2022-10-04T01:59:55.247Z,2.13
2022-10-04T02:02:30.982Z,2.00
2022-10-04T02:05:00.796Z,2.07
2022-10-04T02:07:33.173Z,1.87
2022-10-04T02:10:06.617Z,1.93
2022-10-04T02:12:36.409Z,1.50
2022-10-04T02:15:08.711Z,1.50
2022-10-04T02:17:43.118Z,1.60
2022-10-04T02:20:16.149Z,1.57
2022-10-04T02:22:46.834Z,1.30
2022-10-04T02:25:19.652Z,1.20
2022-10-04T02:27:48.499Z,2.20
2022-10-04T02:30:16.986Z,1.80
2022-10-04T02:33:00.602Z,1.40
2022-10-04T02:35:34.248Z,1.50
2022-10-04T02:38:09.175Z,1.20
2022-10-04T02:40:46.041Z,1.33
2022-10-04T02:43:18.427Z,1.60
2022-10-04T02:45:53.034Z,1.70
2022-10-04T02:48:32.718Z,1.60
2022-10-04T02:51:08.410Z,1.50
2022-10-04T02:53:47.405Z,1.63
2022-10-04T02:56:19.324Z,1.50
2022-10-04T02:58:49.251Z,1.50
2022-10-04T03:01:26.911Z,1.43
2022-10-04T03:03:56.924Z,1.20
2022-10-04T03:06:32.409Z,1.20
2022-10-04T03:09:04.713Z,2.00
2022-10-04T03:11:38.231Z,1.60
2022-10-04T03:14:14.864Z,1.90
2022-10-04T03:16:46.551Z,1.50
2022-10-04T03:19:19.331Z,1.80
2022-10-04T03:21:50.480Z,1.80
2022-10-04T03:24:24.962Z,1.60
2022-10-04T03:26:57.485Z,1.60
2022-10-04T03:29:30.378Z,1.70
2022-10-04T03:32:01.632Z,1.80
2022-10-04T03:34:35.281Z,1.90
2022-10-04T03:37:07.254Z,1.77
2022-10-04T03:39:39.603Z,3.50
2022-10-04T03:42:14.071Z,2.10
2022-10-04T03:44:43.113Z,1.83
2022-10-04T03:47:14.388Z,2.33
2022-10-04T03:49:47.402Z,1.77
2022-10-04T03:52:24.218Z,1.80
2022-10-04T03:54:55.250Z,1.70
2022-10-04T03:57:25.234Z,2.00
2022-10-04T03:59:54.019Z,1.70
2022-10-04T04:02:31.637Z,1.70
2022-10-04T04:05:10.221Z,1.80
2022-10-04T04:07:44.187Z,1.80
2022-10-04T04:10:19.691Z,5.03
2022-10-04T04:12:57.392Z,1.90
2022-10-04T04:15:29.809Z,5.53
2022-10-04T04:18:03.233Z,2.20
2022-10-04T04:20:34.003Z,1.80
2022-10-04T04:23:06.979Z,1.77
2022-10-04T04:25:39.631Z,2.10
2022-10-04T04:28:22.233Z,1.70
2022-10-04T04:30:54.495Z,1.53
2022-10-04T04:33:29.811Z,2.73
2022-10-04T04:36:05.705Z,2.83
2022-10-04T04:38:35.525Z,2.60
2022-10-04T04:41:11.131Z,1.77
2022-10-04T04:43:45.199Z,1.30
2022-10-04T04:46:27.171Z,1.30
2022-10-04T04:49:02.515Z,1.90
2022-10-04T04:51:33.160Z,1.70
2022-10-04T04:54:05.055Z,1.37
2022-10-04T04:56:34.615Z,2.00
2022-10-04T04:59:08.288Z,6.63
2022-10-04T05:01:43.510Z,4.30
2022-10-04T05:04:20.050Z,4.63
2022-10-04T05:07:00.108Z,4.00
2022-10-04T05:09:31.848Z,2.57
2022-10-04T05:12:07.862Z,1.53
2022-10-04T05:14:41.210Z,3.07
2022-10-04T05:17:17.483Z,2.23
2022-10-04T05:19:46.495Z,3.73
2022-10-04T05:22:20.424Z,1.60
2022-10-04T05:24:53.287Z,1.83
2022-10-04T05:27:30.067Z,1.90
2022-10-04T05:30:07.868Z,1.53
2022-10-04T05:32:48.448Z,1.67
2022-10-04T05:35:18.903Z,1.70
2022-10-04T05:38:03.593Z,2.87
2022-10-04T05:40:42.953Z,3.80
2022-10-04T05:43:30.184Z,3.57
2022-10-04T05:46:22.631Z,3.33
2022-10-04T05:48:55.291Z,2.40
2022-10-04T05:51:27.174Z,2.50
2022-10-04T05:53:57.934Z,3.30
2022-10-04T05:56:55.025Z,3.37
2022-10-04T05:59:48.879Z,3.33
2022-10-04T06:02:33.499Z,3.40
2022-10-04T06:05:12.510Z,2.43
2022-10-04T06:07:44.870Z,3.27
2022-10-04T06:10:44.829Z,2.20
2022-10-04T06:13:29.133Z,1.90
2022-10-04T06:16:20.145Z,2.20
2022-10-04T06:19:24.066Z,2.53
2022-10-04T06:22:06.654Z,2.40
2022-10-04T06:24:38.459Z,4.53
2022-10-04T06:27:13.781Z,4.10
2022-10-04T06:29:48.679Z,5.17
2022-10-04T06:32:53.882Z,10.97
2022-10-04T06:35:47.494Z,3.73
2022-10-04T06:38:34.684Z,4.00
2022-10-04T06:41:46.005Z,5.30
2022-10-04T06:44:55.164Z,1.93
2022-10-04T06:47:38.201Z,1.50
2022-10-04T06:50:22.673Z,1.80
2022-10-04T06:53:10.574Z,1.93
2022-10-04T06:55:55.129Z,2.30
2022-10-04T06:58:37.520Z,3.60
2022-10-04T07:01:09.193Z,1.50
2022-10-04T07:03:51.415Z,1.37
2022-10-04T07:06:25.698Z,1.83
2022-10-04T07:08:59.762Z,1.43
2022-10-04T07:11:32.761Z,1.73
2022-10-04T07:14:07.397Z,1.33
2022-10-04T07:16:45.432Z,1.87
2022-10-04T07:19:29.164Z,1.40
2022-10-04T07:22:05.309Z,1.13
2022-10-04T07:24:47.424Z,1.30
2022-10-04T07:27:19.067Z,2.63
2022-10-04T07:29:53.038Z,1.80
2022-10-04T07:32:23.910Z,2.03
2022-10-04T07:34:58.594Z,4.50
2022-10-04T07:37:29.887Z,2.10
2022-10-04T07:40:03.778Z,1.93
2022-10-04T07:42:38.928Z,1.60
2022-10-04T07:45:16.335Z,1.10
2022-10-04T07:47:45.284Z,0.87
2022-10-04T07:50:29.513Z,2.27
2022-10-04T07:53:08.539Z,1.00
2022-10-04T07:55:52.764Z,0.60
2022-10-04T07:58:29.779Z,0.70
2022-10-04T08:01:02.238Z,0.60
2022-10-04T08:04:00.552Z,0.67
2022-10-04T08:06:37.674Z,0.70
2022-10-04T08:09:26.478Z,0.73
2022-10-04T08:12:07.326Z,0.90
2022-10-04T08:14:52.556Z,0.90
2022-10-04T08:17:34.560Z,0.73
2022-10-04T08:20:31.684Z,0.50
2022-10-04T08:23:32.476Z,1.20
2022-10-04T08:26:14.142Z,1.10
2022-10-04T08:29:09.342Z,1.07
2022-10-04T08:31:52.667Z,0.83
2022-10-04T08:34:42.336Z,1.40
2022-10-04T08:37:20.999Z,1.13
2022-10-04T08:39:59.579Z,1.20
2022-10-04T08:43:00.574Z,1.17
2022-10-04T08:46:19.742Z,1.70
2022-10-04T08:49:24.322Z,1.57
2022-10-04T08:52:20.543Z,1.20
2022-10-04T08:55:35.160Z,1.23
2022-10-04T08:58:33.487Z,1.30
2022-10-04T09:01:19.359Z,1.37
2022-10-04T09:04:22.903Z,1.90
2022-10-04T09:07:03.863Z,1.30
2022-10-04T09:10:06.803Z,1.20
2022-10-04T09:12:50.928Z,1.40
2022-10-04T09:15:31.769Z,1.17
2022-10-04T09:18:17.962Z,1.50
2022-10-04T09:20:57.848Z,2.67
2022-10-04T09:24:00.608Z,1.20
2022-10-04T09:26:44.985Z,1.83
2022-10-04T09:29:41.170Z,1.47
2022-10-04T09:32:49.191Z,1.80
2022-10-04T09:35:39.137Z,1.27
2022-10-04T09:38:26.178Z,0.93
2022-10-04T09:41:26.899Z,1.20
2022-10-04T09:44:25.588Z,1.20
2022-10-04T09:47:12.557Z,1.20
2022-10-04T09:50:17.516Z,1.30
2022-10-04T09:52:55.613Z,1.43
2022-10-04T09:55:36.521Z,1.10
2022-10-04T09:58:29.557Z,1.20
2022-10-04T10:01:09.065Z,1.00
2022-10-04T10:04:06.593Z,0.70
2022-10-04T10:06:51.926Z,1.10
2022-10-04T10:09:48.651Z,1.30
2022-10-04T10:13:05.838Z,1.30
2022-10-04T10:15:59.631Z,1.00
2022-10-04T10:18:36.595Z,1.00
2022-10-04T10:21:35.401Z,1.10
2022-10-04T10:24:26.121Z,1.00
2022-10-04T10:27:04.003Z,1.30
2022-10-04T10:30:04.469Z,0.80
2022-10-04T10:33:04.252Z,1.00
2022-10-04T10:35:49.201Z,2.07
2022-10-04T10:38:40.222Z,1.13
2022-10-04T10:41:32.321Z,1.00
2022-10-04T10:44:12.316Z,1.10
2022-10-04T10:47:00.470Z,1.20
2022-10-04T10:49:47.551Z,1.50
2022-10-04T10:52:47.019Z,1.40
2022-10-04T10:55:33.236Z,0.80
2022-10-04T10:58:41.299Z,0.80
2022-10-04T11:01:32.996Z,1.27
2022-10-04T11:04:24.183Z,0.90
2022-10-04T11:07:21.230Z,0.50
2022-10-04T11:10:09.947Z,0.70
2022-10-04T11:13:04.878Z,1.07
2022-10-04T11:16:10.711Z,0.90
2022-10-04T11:19:19.601Z,0.87
2022-10-04T11:22:19.825Z,1.40
2022-10-04T11:25:19.021Z,0.70
2022-10-04T11:27:57.909Z,0.60
2022-10-04T11:30:29.019Z,0.40
2022-10-04T11:33:34.057Z,0.70
2022-10-04T11:36:39.193Z,0.97
2022-10-04T11:39:25.959Z,0.90
2022-10-04T11:42:00.895Z,1.37
2022-10-04T11:45:01.545Z,0.90
2022-10-04T11:47:52.569Z,0.90
2022-10-04T11:50:37.213Z,1.00
2022-10-04T11:53:48.086Z,2.87
2022-10-04T11:56:34.840Z,0.80
2022-10-04T11:59:25.166Z,0.80
2022-10-04T12:02:41.581Z,1.40
2022-10-04T12:05:47.802Z,1.63
2022-10-04T12:08:30.426Z,0.77
2022-10-04T12:12:03.341Z,1.77
2022-10-04T12:14:50.981Z,0.70
2022-10-04T12:17:56.399Z,1.00
2022-10-04T12:20:56.942Z,1.27
2022-10-04T12:23:48.422Z,0.90
2022-10-04T12:26:56.919Z,1.07
2022-10-04T12:30:01.092Z,1.93
2022-10-04T12:32:37.410Z,2.20
2022-10-04T12:35:22.578Z,1.63
2022-10-04T12:38:13.619Z,0.97
2022-10-04T12:40:50.146Z,0.90
2022-10-04T12:43:28.187Z,1.10
2022-10-04T12:46:05.329Z,1.00
2022-10-04T12:48:55.042Z,0.97
2022-10-04T12:51:34.942Z,1.20
2022-10-04T12:54:15.913Z,1.73
2022-10-04T12:56:49.330Z,2.30
2022-10-04T12:59:44.162Z,1.10
2022-10-04T13:02:38.345Z,0.60
2022-10-04T13:05:18.398Z,1.10
2022-10-04T13:08:03.604Z,1.43
2022-10-04T13:10:51.498Z,0.83
2022-10-04T13:13:55.726Z,1.30
2022-10-04T13:19:37.289Z,1.40
2022-10-04T13:22:43.939Z,1.10
2022-10-04T13:25:24.788Z,0.60
2022-10-04T13:28:00.746Z,1.00
2022-10-04T13:30:34.189Z,0.90
2022-10-04T13:33:14.482Z,1.60
2022-10-04T13:35:50.908Z,1.57
2022-10-04T13:38:38.281Z,1.07
2022-10-04T13:41:17.648Z,0.90
2022-10-04T13:44:34.798Z,0.90
2022-10-04T13:47:23.933Z,1.07
2022-10-04T13:50:10.215Z,1.57
2022-10-04T13:53:05.015Z,1.13
2022-10-04T13:55:59.466Z,0.70
2022-10-04T13:58:37.424Z,0.60
2022-10-04T14:01:48.384Z,0.50
2022-10-04T14:04:43.782Z,0.80
2022-10-04T14:07:42.572Z,1.50
2022-10-04T14:10:43.933Z,1.10
2022-10-04T14:13:58.079Z,1.20
2022-10-04T14:16:57.631Z,1.20
2022-10-04T14:20:00.964Z,1.40
2022-10-04T14:22:57.110Z,1.20
2022-10-04T14:25:58.760Z,1.00
2022-10-04T14:28:58.251Z,1.30
2022-10-04T14:31:58.285Z,1.37
2022-10-04T14:34:56.054Z,1.30
2022-10-04T14:37:59.164Z,1.50
2022-10-04T14:40:49.014Z,3.10
2022-10-04T14:43:55.067Z,1.93
2022-10-04T14:46:29.704Z,2.80
2022-10-04T14:49:14.271Z,2.63
2022-10-04T14:51:56.616Z,2.87
2022-10-04T14:54:43.633Z,2.60
2022-10-04T14:57:20.606Z,2.40
2022-10-04T15:00:16.481Z,1.90
2022-10-04T15:03:13.448Z,3.00
2022-10-04T15:06:21.325Z,1.60
2022-10-04T15:09:36.702Z,1.90
2022-10-04T15:12:45.950Z,1.83
2022-10-04T15:15:45.954Z,2.93
2022-10-04T15:18:31.302Z,2.23
2022-10-04T15:21:06.886Z,1.70
2022-10-04T15:23:40.112Z,2.17
2022-10-04T15:26:49.948Z,1.63
2022-10-04T15:29:26.637Z,2.00
2022-10-04T15:32:07.409Z,2.17
2022-10-04T15:34:42.367Z,2.37
2022-10-04T15:37:20.050Z,2.17
2022-10-04T15:40:09.660Z,2.20
2022-10-04T15:42:41.833Z,2.93
2022-10-04T15:45:31.516Z,2.17
2022-10-04T15:48:22.729Z,2.93
2022-10-04T15:51:05.662Z,2.70
2022-10-04T15:54:11.159Z,2.70
2022-10-04T15:56:51.779Z,2.03
2022-10-04T15:59:49.498Z,1.90
2022-10-04T16:02:48.752Z,2.30
2022-10-04T16:05:26.927Z,2.20
2022-10-04T16:08:15.383Z,2.73
2022-10-04T16:11:03.574Z,2.30
2022-10-04T16:13:43.417Z,2.83
2022-10-04T16:16:43.220Z,2.93
2022-10-04T16:19:31.334Z,2.50
2022-10-04T16:22:16.105Z,2.97
2022-10-04T16:24:55.611Z,2.63
2022-10-04T16:27:46.171Z,2.47
2022-10-04T16:30:27.161Z,3.00
2022-10-04T16:33:31.395Z,2.23
2022-10-04T16:36:10.167Z,2.87
2022-10-04T16:39:07.711Z,2.30
2022-10-04T16:41:44.408Z,2.37
2022-10-04T16:44:35.399Z,2.00
2022-10-04T16:47:19.432Z,2.23
2022-10-04T16:49:55.006Z,2.70
2022-10-04T16:52:48.516Z,2.60
2022-10-04T16:55:43.633Z,2.87
2022-10-04T16:58:42.648Z,2.70
2022-10-04T17:02:11.410Z,2.03
2022-10-04T17:05:04.202Z,2.50
2022-10-04T17:07:44.599Z,2.20
2022-10-04T17:10:30.955Z,2.70
2022-10-04T17:13:14.173Z,2.70
2022-10-04T17:15:52.450Z,3.40
2022-10-04T17:18:36.177Z,2.70
2022-10-04T17:21:14.273Z,3.63
2022-10-04T17:24:14.763Z,3.43
2022-10-04T17:27:05.933Z,4.03
2022-10-04T17:29:49.031Z,3.83
2022-10-04T17:32:27.846Z,4.33
2022-10-04T17:35:13.619Z,7.43
2022-10-04T17:37:48.321Z,4.93
2022-10-04T17:40:37.535Z,4.23
2022-10-04T17:43:16.555Z,4.83
2022-10-04T17:46:00.758Z,3.93
2022-10-04T17:48:49.217Z,5.23
2022-10-04T17:52:01.203Z,3.87
2022-10-04T17:54:51.496Z,3.83
2022-10-04T17:57:27.312Z,5.23
2022-10-04T18:00:08.379Z,4.50
2022-10-04T18:03:13.011Z,4.90
2022-10-04T18:05:54.379Z,4.70
2022-10-04T18:08:40.614Z,4.40
2022-10-04T18:11:20.337Z,4.13
2022-10-04T18:13:55.610Z,4.47
2022-10-04T18:16:29.695Z,5.00
2022-10-04T18:19:02.714Z,8.60
2022-10-04T18:21:33.247Z,4.47
2022-10-04T18:24:18.557Z,3.97
2022-10-04T18:26:59.329Z,4.90
2022-10-04T18:29:39.859Z,6.73
2022-10-04T18:32:32.635Z,6.47
2022-10-04T18:35:04.019Z,4.77
2022-10-04T18:37:38.565Z,7.07
2022-10-04T18:40:19.349Z,5.70
2022-10-04T18:42:58.537Z,5.63
2022-10-04T18:45:30.222Z,4.90
2022-10-04T18:48:01.471Z,4.43
2022-10-04T18:50:39.278Z,10.97
2022-10-04T18:53:32.430Z,6.43
2022-10-04T18:56:03.563Z,13.13
2022-10-04T18:59:20.284Z,7.03
2022-10-04T19:02:07.892Z,5.97
2022-10-04T19:04:48.427Z,4.90
2022-10-04T19:07:19.824Z,4.87
2022-10-04T19:10:05.070Z,6.97
2022-10-04T19:12:42.488Z,5.57
2022-10-04T19:15:25.157Z,4.70
2022-10-04T19:18:03.073Z,4.53
2022-10-04T19:20:40.756Z,4.70
2022-10-04T19:23:21.077Z,3.90
2022-10-04T19:26:26.081Z,3.70
2022-10-04T19:28:43.375Z,4.23
2022-10-04T19:31:21.024Z,4.13
2022-10-04T19:33:56.608Z,4.47
2022-10-04T19:36:34.282Z,7.07
2022-10-04T19:39:17.323Z,5.63
2022-10-04T19:41:55.738Z,5.20
2022-10-04T19:44:36.268Z,4.50
2022-10-04T19:47:10.480Z,4.87
2022-10-04T19:49:51.064Z,11.23
2022-10-04T19:52:26.808Z,6.03
2022-10-04T19:55:03.468Z,5.53
2022-10-04T19:57:38.418Z,6.33
2022-10-04T20:00:16.888Z,6.03
2022-10-04T20:02:48.730Z,7.47
2022-10-04T20:05:25.118Z,6.60
2022-10-04T20:08:01.346Z,7.70
2022-10-04T20:10:34.573Z,10.53
2022-10-04T20:13:27.293Z,9.00
2022-10-04T20:16:00.318Z,6.07
2022-10-04T20:19:09.803Z,5.27
2022-10-04T20:21:39.730Z,6.23
2022-10-04T20:24:17.707Z,4.83
2022-10-04T20:26:55.028Z,4.70
2022-10-04T20:30:05.218Z,4.57
2022-10-04T20:32:59.347Z,4.40
2022-10-04T20:36:08.577Z,5.80
2022-10-04T20:38:55.402Z,4.67
2022-10-04T20:42:22.565Z,5.20
2022-10-04T20:44:57.824Z,7.33
2022-10-04T20:47:39.419Z,17.53
2022-10-04T20:50:16.565Z,7.47
2022-10-04T20:52:50.219Z,5.57
2022-10-04T20:55:27.320Z,5.10
2022-10-04T20:57:57.807Z,5.67
2022-10-04T21:00:28.118Z,5.13
2022-10-04T21:03:14.429Z,5.50
2022-10-04T21:05:43.765Z,11.40
2022-10-04T21:08:20.890Z,6.33
2022-10-04T21:11:10.080Z,4.07
2022-10-04T21:13:49.697Z,3.53
2022-10-04T21:16:43.126Z,2.80
2022-10-04T21:19:45.318Z,3.33
2022-10-04T21:22:41.138Z,7.03
2022-10-04T21:25:39.607Z,3.17
2022-10-04T21:28:26.014Z,3.83
2022-10-04T21:30:55.216Z,3.60
2022-10-04T21:33:23.638Z,6.03
2022-10-04T21:35:52.717Z,3.10
2022-10-04T21:38:21.181Z,3.43
2022-10-04T21:40:49.608Z,3.37
2022-10-04T21:43:17.994Z,5.03
2022-10-04T21:45:47.816Z,9.17
2022-10-04T21:48:16.374Z,5.00
2022-10-04T21:50:44.960Z,5.00
2022-10-04T21:53:13.759Z,8.60
2022-10-04T21:55:42.208Z,3.90
2022-10-04T21:58:10.591Z,4.67
2022-10-04T22:00:39.096Z,4.07
2022-10-04T22:03:08.918Z,4.60
2022-10-04T22:05:37.351Z,3.50
2022-10-04T22:08:05.800Z,2.40
2022-10-04T22:10:34.242Z,2.80
2022-10-04T22:13:02.637Z,8.47
2022-10-04T22:15:31.097Z,5.27
2022-10-04T22:17:59.536Z,4.07
2022-10-04T22:20:29.553Z,4.33
2022-10-04T22:22:59.161Z,3.63
2022-10-04T22:25:29.177Z,6.87
2022-10-04T22:27:57.652Z,7.53
2022-10-04T22:30:27.991Z,3.77
2022-10-04T22:33:03.130Z,2.87
2022-10-04T22:35:34.734Z,2.70
2022-10-04T22:38:03.645Z,3.00
2022-10-04T22:40:32.073Z,3.17
2022-10-04T22:43:01.029Z,4.30
2022-10-04T22:45:33.556Z,4.00
2022-10-04T22:48:11.796Z,5.87
2022-10-04T22:50:42.049Z,4.40
2022-10-04T22:53:14.881Z,5.03
2022-10-04T22:55:43.577Z,4.63
2022-10-04T22:58:13.793Z,3.87
2022-10-04T23:00:43.105Z,3.83
2022-10-04T23:03:27.758Z,3.30
2022-10-04T23:05:57.864Z,3.27
2022-10-04T23:08:26.524Z,3.53
2022-10-04T23:10:55.917Z,3.53
2022-10-04T23:13:25.015Z,4.53
2022-10-04T23:15:53.871Z,3.40
2022-10-04T23:18:22.389Z,4.70
2022-10-04T23:21:02.370Z,5.43
2022-10-04T23:23:32.393Z,2.60
2022-10-04T23:26:00.822Z,2.50
2022-10-04T23:28:29.461Z,2.70
2022-10-04T23:31:06.184Z,2.23
2022-10-04T23:33:35.494Z,2.80
2022-10-04T23:36:10.768Z,3.10
2022-10-04T23:38:39.355Z,2.80
2022-10-04T23:41:11.347Z,2.47
2022-10-04T23:43:40.296Z,2.37
2022-10-04T23:46:14.860Z,2.63
2022-10-04T23:48:43.667Z,2.80
2022-10-04T23:51:16.000Z,2.43
2022-10-04T23:53:46.310Z,3.27
2022-10-04T23:56:20.261Z,2.33
2022-10-04T23:58:49.708Z,2.80
